createdAt,value
2022-09-12T00:01:21.366Z,13.10
2022-09-12T00:03:57.938Z,13.10
2022-09-12T00:06:37.125Z,13.10
2022-09-12T00:09:10.084Z,13.10
2022-09-12T00:11:40.474Z,13.00
2022-09-12T00:14:12.155Z,13.00
2022-09-12T00:16:39.559Z,13.00
2022-09-12T00:36:42.662Z,12.80
2022-09-12T00:39:14.233Z,12.70
2022-09-12T00:41:42.560Z,12.60
2022-09-12T00:44:09.753Z,12.60
2022-09-12T00:46:51.345Z,12.60
2022-09-12T00:49:27.953Z,12.60
2022-09-12T00:52:20.332Z,12.60
2022-09-12T00:54:48.364Z,12.60
2022-09-12T00:57:28.850Z,12.60
2022-09-12T01:00:21.357Z,12.60
2022-09-12T01:03:13.238Z,12.60
2022-09-12T01:08:38.120Z,12.60
2022-09-12T01:11:07.663Z,12.60
2022-09-12T01:13:35.464Z,12.50
2022-09-12T01:16:06.421Z,12.50
2022-09-12T01:18:48.150Z,12.50
2022-09-12T01:24:34.280Z,12.50
2022-09-12T01:28:13.112Z,12.60
2022-09-12T01:31:01.655Z,12.70
2022-09-12T01:33:53.374Z,12.70
2022-09-12T01:36:33.758Z,12.70
2022-09-12T01:39:32.695Z,12.60
2022-09-12T01:44:58.851Z,12.60
2022-09-12T01:47:47.348Z,12.50
2022-09-12T01:50:19.270Z,12.50
2022-09-12T01:53:21.930Z,12.50
2022-09-12T01:56:12.606Z,12.50
2022-09-12T01:58:54.157Z,12.50
2022-09-12T02:01:29.986Z,12.50
2022-09-12T02:03:59.677Z,12.50
2022-09-12T02:06:48.552Z,12.40
2022-09-12T02:13:29.486Z,12.40
2022-09-12T02:16:07.234Z,12.40
2022-09-12T02:21:58.567Z,12.20
2022-09-12T02:24:34.471Z,12.20
2022-09-12T02:27:42.777Z,12.20
2022-09-12T02:33:44.510Z,12.10
2022-09-12T02:42:53.216Z,12.10
2022-09-12T02:45:23.170Z,12.10
2022-09-12T02:50:55.179Z,12.10
2022-09-12T02:53:23.560Z,12.10
2022-09-12T03:05:04.990Z,12.10
2022-09-12T03:11:08.572Z,12.00
2022-09-12T03:14:29.832Z,12.00
2022-09-12T03:17:12.569Z,11.90
2022-09-12T03:20:18.487Z,11.90
2022-09-12T03:23:00.122Z,11.80
2022-09-12T03:25:51.323Z,11.70
2022-09-12T03:28:31.502Z,11.70
2022-09-12T03:30:59.003Z,11.60
2022-09-12T03:33:29.071Z,11.60
2022-09-12T03:35:58.632Z,11.60
2022-09-12T03:38:25.431Z,11.60
2022-09-12T03:40:55.199Z,11.50
2022-09-12T03:43:38.542Z,11.50
2022-09-12T03:49:11.865Z,11.50
2022-09-12T03:51:47.451Z,11.50
2022-09-12T03:54:20.077Z,11.50
2022-09-12T04:02:44.828Z,11.50
2022-09-12T04:05:13.657Z,11.50
2022-09-12T04:08:06.554Z,11.50
2022-09-12T04:10:34.888Z,11.50
2022-09-12T04:16:40.740Z,11.40
2022-09-12T04:25:23.393Z,11.30
2022-09-12T04:33:57.600Z,11.20
2022-09-12T04:36:25.344Z,11.20
2022-09-12T04:38:58.052Z,11.20
2022-09-12T04:41:30.939Z,11.20
2022-09-12T04:47:00.787Z,11.10
2022-09-12T04:49:27.444Z,11.10
2022-09-12T04:52:21.959Z,11.10
2022-09-12T04:57:40.010Z,11.10
2022-09-12T05:00:35.868Z,11.00
2022-09-12T05:03:03.884Z,11.10
2022-09-12T05:05:38.141Z,11.10
2022-09-12T05:08:20.056Z,11.20
2022-09-12T05:11:21.519Z,11.20
2022-09-12T05:14:18.264Z,11.20
2022-09-12T05:16:49.214Z,11.10
2022-09-12T05:19:29.370Z,11.10
2022-09-12T05:22:02.170Z,11.10
2022-09-12T05:24:29.949Z,11.10
2022-09-12T05:27:03.622Z,11.10
2022-09-12T05:29:31.731Z,11.10
2022-09-12T05:32:03.078Z,11.20
2022-09-12T05:34:33.343Z,11.20
2022-09-12T05:37:00.236Z,11.20
2022-09-12T05:39:28.248Z,11.20
2022-09-12T05:41:55.649Z,11.30
2022-09-12T05:44:25.100Z,11.30
2022-09-12T05:47:01.224Z,11.30
2022-09-12T05:55:22.369Z,11.40
2022-09-12T05:58:00.948Z,11.50
2022-09-12T06:07:20.341Z,11.70
2022-09-12T06:09:46.973Z,11.80
2022-09-12T06:12:28.732Z,11.90
2022-09-12T06:14:56.355Z,12.00
2022-09-12T06:17:38.633Z,12.00
2022-09-12T06:23:36.942Z,12.20
2022-09-12T06:26:07.850Z,12.30
2022-09-12T06:28:38.138Z,12.40
2022-09-12T06:37:10.994Z,12.70
2022-09-12T06:39:44.884Z,12.90
2022-09-12T06:42:15.933Z,13.00
2022-09-12T06:45:10.789Z,13.10
2022-09-12T06:48:28.903Z,13.30
2022-09-12T06:51:01.946Z,13.40
2022-09-12T06:53:29.891Z,13.60
2022-09-12T06:58:57.645Z,13.90
2022-09-12T07:04:36.420Z,14.20
2022-09-12T07:07:05.697Z,14.40
2022-09-12T07:09:35.470Z,14.60
2022-09-12T07:12:05.985Z,14.70
2022-09-12T07:14:38.168Z,14.90
2022-09-12T07:17:06.042Z,15.00
2022-09-12T07:19:32.949Z,15.20
2022-09-12T07:22:01.189Z,15.30
2022-09-12T07:24:28.480Z,15.40
2022-09-12T07:29:49.771Z,15.60
2022-09-12T07:36:36.086Z,16.10
2022-09-12T07:39:11.519Z,16.30
2022-09-12T07:42:14.843Z,16.50
2022-09-12T07:44:50.207Z,16.70
2022-09-12T07:47:18.492Z,16.80
2022-09-12T07:50:04.199Z,16.90
2022-09-12T07:52:30.987Z,17.10
2022-09-12T07:54:58.010Z,17.30
2022-09-12T07:57:27.735Z,17.50
2022-09-12T07:59:58.394Z,17.70
2022-09-12T08:02:26.490Z,17.80
2022-09-12T08:05:27.608Z,18.00
2022-09-12T08:07:57.735Z,18.20
2022-09-12T08:10:47.885Z,18.30
2022-09-12T08:13:20.004Z,18.50
2022-09-12T08:16:14.540Z,18.70
2022-09-12T08:24:29.295Z,19.10
2022-09-12T08:26:56.658Z,19.30
2022-09-12T08:29:26.281Z,19.50
2022-09-12T08:32:22.877Z,19.60
2022-09-12T08:34:52.482Z,19.80
2022-09-12T08:37:51.056Z,19.90
2022-09-12T08:40:24.375Z,20.10
2022-09-12T08:48:37.525Z,20.70
2022-09-12T08:51:13.330Z,20.90
2022-09-12T08:59:08.123Z,21.50
2022-09-12T09:01:42.555Z,21.70
2022-09-12T09:05:17.459Z,21.80
2022-09-12T09:08:11.143Z,21.90
2022-09-12T09:11:22.986Z,22.10
2022-09-12T09:14:53.218Z,22.30
2022-09-12T09:17:42.534Z,22.50
2022-09-12T09:24:20.811Z,22.90
2022-09-12T09:27:39.876Z,23.10
2022-09-12T09:30:26.006Z,23.30
2022-09-12T09:33:32.766Z,23.50
2022-09-12T09:36:47.261Z,23.70
2022-09-12T09:39:42.826Z,23.90
2022-09-12T09:42:53.422Z,23.90
2022-09-12T09:45:27.050Z,24.20
2022-09-12T09:58:33.006Z,24.40
2022-09-12T10:01:05.563Z,24.80
2022-09-12T10:06:54.138Z,24.90
2022-09-12T10:09:37.036Z,25.00
2022-09-12T10:15:17.456Z,25.30
2022-09-12T10:17:49.371Z,25.60
2022-09-12T10:20:44.478Z,25.80
2022-09-12T10:23:28.787Z,26.00
2022-09-12T10:25:56.853Z,26.10
2022-09-12T10:28:39.056Z,26.10
2022-09-12T10:31:11.296Z,26.20
2022-09-12T10:37:39.174Z,26.50
2022-09-12T10:40:19.952Z,26.80
2022-09-12T10:42:49.372Z,26.80
2022-09-12T10:48:26.560Z,27.00
2022-09-12T10:50:58.767Z,27.30
2022-09-12T11:06:05.387Z,26.80
2022-09-12T11:14:56.314Z,27.20
2022-09-12T11:18:00.072Z,27.20
2022-09-12T11:24:01.584Z,27.40
2022-09-12T11:29:53.105Z,28.00
2022-09-12T11:33:10.621Z,28.20
2022-09-12T11:35:55.148Z,28.40
2022-09-12T11:38:53.961Z,28.50
2022-09-12T11:41:36.507Z,28.50
2022-09-12T11:44:14.982Z,28.50
2022-09-12T11:49:41.403Z,28.50
2022-09-12T11:58:30.578Z,28.00
2022-09-12T12:01:16.900Z,27.80
2022-09-12T12:04:25.122Z,28.00
2022-09-12T12:07:08.300Z,28.30
2022-09-12T12:10:32.027Z,28.50
2022-09-12T12:19:36.990Z,28.80
2022-09-12T12:22:24.083Z,29.00
2022-09-12T12:25:21.905Z,28.60
2022-09-12T12:28:21.048Z,28.50
2022-09-12T12:30:55.416Z,28.50
2022-09-12T12:33:59.521Z,28.50
2022-09-12T12:36:37.822Z,28.50
2022-09-12T12:39:48.554Z,28.50
2022-09-12T12:42:36.221Z,28.80
2022-09-12T12:45:17.855Z,29.20
2022-09-12T12:48:17.128Z,29.30
2022-09-12T12:50:45.294Z,29.40
2022-09-12T12:53:41.157Z,29.20
2022-09-12T12:57:01.131Z,29.10
2022-09-12T12:59:29.795Z,29.30
2022-09-12T13:02:05.097Z,29.40
2022-09-12T13:05:20.383Z,29.30
2022-09-12T13:08:25.826Z,29.70
2022-09-12T13:11:58.444Z,30.10
2022-09-12T13:14:42.426Z,30.50
2022-09-12T13:18:04.123Z,30.80
2022-09-12T13:21:25.167Z,31.10
2022-09-12T13:24:25.195Z,31.10
2022-09-12T13:26:57.060Z,31.20
2022-09-12T13:32:26.512Z,31.10
2022-09-12T13:35:19.431Z,30.90
2022-09-12T13:38:11.273Z,30.80
2022-09-12T13:41:07.693Z,30.50
2022-09-12T13:43:46.774Z,30.60
2022-09-12T13:46:44.211Z,30.70
2022-09-12T13:49:39.424Z,30.70
2022-09-12T13:52:22.515Z,31.10
2022-09-12T13:54:57.420Z,31.40
2022-09-12T13:58:33.918Z,31.60
2022-09-12T14:01:11.228Z,31.60
2022-09-12T14:04:20.273Z,31.40
2022-09-12T14:06:52.436Z,30.90
2022-09-12T14:09:38.050Z,30.60
2022-09-12T14:12:31.665Z,30.50
2022-09-12T14:15:01.695Z,30.70
2022-09-12T14:18:00.647Z,30.80
2022-09-12T14:20:38.728Z,30.90
2022-09-12T14:23:28.463Z,31.00
2022-09-12T14:26:01.772Z,31.00
2022-09-12T14:28:57.860Z,31.00
2022-09-12T14:31:31.343Z,31.10
2022-09-12T14:34:30.295Z,31.30
2022-09-12T14:37:06.235Z,31.50
2022-09-12T14:40:06.535Z,31.40
2022-09-12T14:42:42.016Z,31.10
2022-09-12T14:46:08.872Z,31.10
2022-09-12T14:49:49.632Z,30.80
2022-09-12T14:52:39.348Z,30.40
2022-09-12T14:55:58.820Z,30.40
2022-09-12T14:59:17.854Z,30.70
2022-09-12T15:06:38.030Z,30.40
2022-09-12T15:09:13.449Z,30.60
2022-09-12T15:11:48.982Z,30.70
2022-09-12T15:14:21.773Z,30.60
2022-09-12T15:16:49.911Z,30.60
2022-09-12T15:19:26.814Z,30.40
2022-09-12T15:21:54.016Z,30.20
2022-09-12T15:24:23.403Z,30.10
2022-09-12T15:26:54.678Z,30.00
2022-09-12T15:29:23.134Z,29.80
2022-09-12T15:31:51.240Z,29.60
2022-09-12T15:34:21.262Z,29.50
2022-09-12T15:36:49.130Z,29.30
2022-09-12T15:39:16.938Z,29.30
2022-09-12T15:41:47.981Z,29.30
2022-09-12T15:44:19.450Z,29.30
2022-09-12T15:47:40.607Z,29.20
2022-09-12T15:50:15.623Z,29.10
2022-09-12T15:52:48.561Z,28.90
2022-09-12T15:55:22.659Z,28.60
2022-09-12T15:58:02.441Z,28.40
2022-09-12T16:01:02.438Z,28.20
2022-09-12T16:03:34.644Z,28.00
2022-09-12T16:06:03.563Z,27.70
2022-09-12T16:08:31.593Z,27.60
2022-09-12T16:11:13.676Z,27.50
2022-09-12T16:13:41.908Z,27.50
2022-09-12T16:16:58.788Z,27.30
2022-09-12T16:19:54.679Z,27.20
2022-09-12T16:22:34.542Z,27.10
2022-09-12T16:25:53.679Z,27.00
2022-09-12T16:28:24.201Z,26.90
2022-09-12T16:31:03.819Z,26.80
2022-09-12T16:33:52.916Z,26.80
2022-09-12T16:44:52.881Z,26.40
2022-09-12T16:47:23.396Z,26.30
2022-09-12T16:49:55.259Z,26.30
2022-09-12T16:52:22.128Z,26.20
2022-09-12T16:54:48.884Z,26.10
2022-09-12T16:57:16.981Z,26.10
2022-09-12T16:59:49.446Z,26.00
2022-09-12T17:02:41.696Z,25.80
2022-09-12T17:05:11.169Z,25.60
2022-09-12T17:07:51.219Z,25.40
2022-09-12T17:10:43.707Z,25.30
2022-09-12T17:13:10.453Z,25.30
2022-09-12T17:15:37.903Z,25.20
2022-09-12T17:18:06.936Z,25.10
2022-09-12T17:20:36.360Z,25.00
2022-09-12T17:23:09.644Z,24.80
2022-09-12T17:25:37.579Z,24.40
2022-09-12T17:28:11.932Z,24.20
2022-09-12T17:30:41.016Z,24.00
2022-09-12T17:33:15.710Z,23.80
2022-09-12T17:35:46.022Z,23.60
2022-09-12T17:38:17.622Z,23.50
2022-09-12T17:46:30.671Z,23.20
2022-09-12T17:49:24.789Z,22.90
2022-09-12T17:55:38.878Z,22.40
2022-09-12T17:58:07.162Z,22.20
2022-09-12T18:00:53.639Z,22.00
2022-09-12T18:03:28.711Z,21.80
2022-09-12T18:05:58.336Z,21.60
2022-09-12T18:08:25.085Z,21.40
2022-09-12T18:11:18.154Z,21.20
2022-09-12T18:13:49.114Z,21.10
2022-09-12T18:16:20.557Z,21.00
2022-09-12T18:18:50.306Z,20.90
2022-09-12T18:21:23.665Z,20.70
2022-09-12T18:24:03.770Z,20.50
2022-09-12T18:26:33.870Z,20.40
2022-09-12T18:29:03.030Z,20.20
2022-09-12T18:31:30.302Z,20.10
2022-09-12T18:33:59.598Z,20.10
2022-09-12T18:36:26.964Z,19.90
2022-09-12T18:38:54.029Z,19.70
2022-09-12T18:41:23.934Z,19.70
2022-09-12T18:44:18.915Z,19.60
2022-09-12T18:46:50.629Z,19.60
2022-09-12T18:49:18.405Z,19.40
2022-09-12T18:51:48.289Z,19.30
2022-09-12T18:54:16.900Z,19.00
2022-09-12T18:56:45.028Z,18.90
2022-09-12T18:59:13.607Z,18.70
2022-09-12T19:01:42.245Z,18.70
2022-09-12T19:04:12.618Z,18.60
2022-09-12T19:06:44.546Z,18.50
2022-09-12T19:09:18.107Z,18.40
2022-09-12T19:11:55.685Z,18.40
2022-09-12T19:14:24.164Z,18.30
2022-09-12T19:16:51.476Z,18.20
2022-09-12T19:19:18.909Z,18.20
2022-09-12T19:21:48.174Z,18.20
2022-09-12T19:24:17.218Z,18.10
2022-09-12T19:26:47.777Z,18.00
2022-09-12T19:29:16.926Z,17.90
2022-09-12T19:31:43.936Z,17.80
2022-09-12T19:34:15.411Z,17.70
2022-09-12T19:37:07.240Z,17.60
2022-09-12T19:39:37.274Z,17.40
2022-09-12T19:43:18.833Z,17.20
2022-09-12T19:45:49.286Z,17.00
2022-09-12T19:48:20.091Z,17.00
2022-09-12T19:51:01.123Z,17.00
2022-09-12T19:53:28.607Z,16.90
2022-09-12T19:58:55.330Z,16.90
2022-09-12T20:01:43.114Z,16.80
2022-09-12T20:04:11.122Z,16.70
2022-09-12T20:06:44.342Z,16.60
2022-09-12T20:09:14.427Z,16.60
2022-09-12T20:12:02.220Z,16.50
2022-09-12T20:14:29.835Z,16.50
2022-09-12T20:16:56.519Z,16.40
2022-09-12T20:19:30.624Z,16.40
2022-09-12T20:21:59.831Z,16.30
2022-09-12T20:24:26.923Z,16.30
2022-09-12T20:27:02.139Z,16.20
2022-09-12T20:29:29.106Z,16.20
2022-09-12T20:32:12.332Z,16.20
2022-09-12T20:34:40.616Z,16.20
2022-09-12T20:37:12.718Z,16.20
2022-09-12T20:40:00.006Z,16.00
2022-09-12T20:42:28.607Z,16.00
2022-09-12T20:44:55.746Z,15.90
2022-09-12T20:47:22.452Z,15.90
2022-09-12T20:49:53.048Z,15.90
2022-09-12T20:52:20.791Z,15.90
2022-09-12T20:54:47.632Z,15.80
2022-09-12T20:57:17.176Z,15.70
2022-09-12T20:59:51.101Z,15.70
2022-09-12T21:02:20.114Z,15.60
2022-09-12T21:04:46.893Z,15.60
2022-09-12T21:07:13.683Z,15.60
2022-09-12T21:09:43.930Z,15.60
2022-09-12T21:12:14.056Z,15.60
2022-09-12T21:14:40.664Z,15.70
2022-09-12T21:17:09.921Z,15.60
2022-09-12T21:19:38.811Z,15.60
2022-09-12T21:22:05.975Z,15.60
2022-09-12T21:24:33.612Z,15.60
2022-09-12T21:27:04.476Z,15.70
2022-09-12T21:29:37.681Z,15.60
2022-09-12T21:35:18.124Z,15.50
2022-09-12T21:43:40.893Z,15.30
2022-09-12T21:46:09.429Z,15.20
2022-09-12T21:48:37.484Z,15.20
2022-09-12T21:51:05.380Z,15.20
2022-09-12T21:53:32.669Z,15.20
2022-09-12T21:56:17.592Z,15.10
2022-09-12T21:58:53.543Z,15.10
2022-09-12T22:01:44.957Z,15.00
2022-09-12T22:04:14.494Z,15.00
2022-09-12T22:06:41.208Z,15.00
2022-09-12T22:09:09.117Z,15.00
2022-09-12T22:11:38.163Z,15.00
2022-09-12T22:14:11.019Z,15.00
2022-09-12T22:16:46.235Z,15.10
2022-09-12T22:19:20.165Z,15.10
2022-09-12T22:22:05.304Z,15.00
2022-09-12T22:25:02.974Z,15.00
2022-09-12T22:27:41.132Z,14.90
2022-09-12T22:30:08.347Z,14.90
2022-09-12T22:32:37.391Z,14.80
2022-09-12T22:35:06.050Z,14.80
2022-09-12T22:37:35.214Z,14.80
2022-09-12T22:40:02.205Z,14.80
2022-09-12T22:42:31.258Z,14.80
2022-09-12T22:44:57.998Z,14.90
2022-09-12T22:47:24.610Z,14.90
2022-09-12T22:49:51.553Z,14.90
2022-09-12T22:52:25.715Z,15.00
2022-09-12T22:55:11.159Z,14.90
2022-09-12T22:57:39.089Z,14.80
2022-09-12T23:00:12.177Z,14.80
2022-09-12T23:02:47.006Z,14.70
2022-09-12T23:05:13.751Z,14.50
2022-09-12T23:07:42.987Z,14.50
2022-09-12T23:10:16.259Z,14.40
2022-09-12T23:21:24.674Z,14.40
2022-09-12T23:23:51.852Z,14.40
2022-09-12T23:26:27.478Z,14.50
2022-09-12T23:28:57.741Z,14.50
2022-09-12T23:31:30.327Z,14.60
2022-09-12T23:34:01.163Z,14.60
2022-09-12T23:36:55.723Z,14.60
2022-09-12T23:39:22.770Z,14.70
2022-09-12T23:41:50.053Z,14.70
2022-09-12T23:44:23.139Z,14.60
2022-09-12T23:47:14.713Z,14.50
2022-09-12T23:49:44.685Z,14.40
2022-09-12T23:52:11.859Z,14.40
2022-09-12T23:54:38.610Z,14.30
2022-09-12T23:57:06.271Z,14.30
2022-09-12T23:59:36.963Z,14.30
